createdAt,value
2022-07-28T00:00:16.679Z,38.94
2022-07-28T00:03:05.785Z,38.77
2022-07-28T00:05:34.562Z,38.48
2022-07-28T00:08:02.860Z,38.38
2022-07-28T00:10:32.496Z,38.36
2022-07-28T00:13:00.878Z,37.93
2022-07-28T00:15:29.498Z,38.04
2022-07-28T00:17:57.708Z,38.10
2022-07-28T00:20:26.957Z,38.19
2022-07-28T00:22:55.117Z,37.71
2022-07-28T00:25:23.788Z,37.69
2022-07-28T00:27:52.310Z,37.68
2022-07-28T00:30:20.557Z,37.95
2022-07-28T00:32:48.909Z,37.66
2022-07-28T00:35:17.441Z,37.37
2022-07-28T00:37:59.583Z,37.36
2022-07-28T00:40:47.888Z,37.46
2022-07-28T00:43:16.668Z,37.23
2022-07-28T00:45:45.170Z,37.00
2022-07-28T00:48:14.264Z,37.37
2022-07-28T00:50:44.020Z,37.24
2022-07-28T00:53:12.693Z,37.73
2022-07-28T00:56:05.300Z,37.76
2022-07-28T00:58:30.825Z,37.54
2022-07-28T01:00:59.014Z,37.55
2022-07-28T01:03:28.586Z,37.66
2022-07-28T01:06:07.097Z,37.76
2022-07-28T01:08:51.098Z,37.79
2022-07-28T01:11:27.075Z,37.86
2022-07-28T01:14:22.654Z,38.02
2022-07-28T01:17:14.415Z,37.88
2022-07-28T01:20:14.677Z,37.63
2022-07-28T01:23:04.745Z,37.95
2022-07-28T01:25:58.644Z,38.17
2022-07-28T01:28:47.775Z,37.75
2022-07-28T01:31:24.041Z,38.45
2022-07-28T01:33:59.896Z,38.32
2022-07-28T01:36:43.808Z,38.66
2022-07-28T01:39:15.765Z,38.83
2022-07-28T01:41:45.819Z,38.90
2022-07-28T01:44:19.235Z,38.20
2022-07-28T01:46:50.661Z,37.88
2022-07-28T01:49:21.882Z,38.66
2022-07-28T01:51:51.996Z,38.78
2022-07-28T01:54:23.423Z,39.06
2022-07-28T01:56:54.390Z,38.58
2022-07-28T01:59:25.075Z,38.67
2022-07-28T02:01:54.728Z,38.75
2022-07-28T02:04:26.445Z,39.37
2022-07-28T02:06:57.557Z,39.69
2022-07-28T02:09:27.618Z,40.72
2022-07-28T02:11:57.005Z,39.77
2022-07-28T02:14:28.071Z,40.06
2022-07-28T02:17:08.237Z,40.51
2022-07-28T02:19:38.518Z,40.54
2022-07-28T02:22:07.865Z,40.26
2022-07-28T02:24:37.768Z,40.81
2022-07-28T02:27:37.215Z,40.33
2022-07-28T02:30:31.248Z,40.90
2022-07-28T02:33:05.974Z,41.86
2022-07-28T02:35:52.267Z,41.77
2022-07-28T02:38:30.316Z,43.03
2022-07-28T02:41:09.094Z,43.25
2022-07-28T02:43:48.987Z,42.77
2022-07-28T02:46:29.674Z,43.79
2022-07-28T02:49:07.017Z,43.27
2022-07-28T02:51:38.155Z,43.11
2022-07-28T02:54:07.274Z,42.96
2022-07-28T02:56:35.905Z,43.12
2022-07-28T02:59:05.565Z,43.56
2022-07-28T03:01:34.675Z,44.35
2022-07-28T03:04:04.165Z,43.81
2022-07-28T03:06:32.805Z,43.85
2022-07-28T03:09:02.332Z,43.63
2022-07-28T03:11:30.435Z,43.11
2022-07-28T03:14:00.365Z,43.84
2022-07-28T03:16:30.410Z,43.20
2022-07-28T03:18:58.515Z,43.18
2022-07-28T03:21:26.894Z,43.82
2022-07-28T03:23:56.839Z,43.63
2022-07-28T03:26:41.698Z,44.51
2022-07-28T03:29:12.335Z,44.47
2022-07-28T03:31:42.796Z,44.69
2022-07-28T03:34:12.191Z,44.82
2022-07-28T03:36:44.259Z,44.77
2022-07-28T03:39:16.311Z,44.30
2022-07-28T03:41:45.820Z,44.54
2022-07-28T03:44:14.941Z,44.62
2022-07-28T03:46:56.678Z,44.68
2022-07-28T03:49:25.259Z,44.65
2022-07-28T03:51:53.518Z,44.32
2022-07-28T03:54:21.779Z,44.65
2022-07-28T03:56:50.327Z,44.73
2022-07-28T03:59:19.579Z,44.86
2022-07-28T04:01:47.823Z,43.97
2022-07-28T04:04:16.642Z,44.07
2022-07-28T04:06:45.061Z,44.49
2022-07-28T04:09:13.149Z,44.84
2022-07-28T04:11:43.819Z,44.78
2022-07-28T04:14:16.325Z,45.45
2022-07-28T04:16:45.639Z,46.49
2022-07-28T04:19:13.950Z,47.71
2022-07-28T04:21:42.869Z,48.19
2022-07-28T04:24:12.022Z,49.66
2022-07-28T04:26:40.229Z,48.29
2022-07-28T04:29:12.638Z,47.04
2022-07-28T04:31:40.743Z,45.60
2022-07-28T04:34:10.426Z,46.22
2022-07-28T04:36:42.539Z,45.85
2022-07-28T04:39:13.879Z,46.08
2022-07-28T04:41:42.297Z,46.55
2022-07-28T04:44:12.621Z,45.78
2022-07-28T04:46:41.899Z,44.51
2022-07-28T04:49:10.626Z,45.38
2022-07-28T04:51:39.442Z,45.78
2022-07-28T04:54:07.728Z,45.60
2022-07-28T04:56:36.141Z,45.44
2022-07-28T04:59:05.110Z,45.21
2022-07-28T05:01:34.676Z,45.06
2022-07-28T05:04:03.384Z,44.86
2022-07-28T05:06:31.481Z,44.99
2022-07-28T05:08:59.597Z,44.57
2022-07-28T05:11:28.219Z,42.98
2022-07-28T05:13:56.330Z,41.35
2022-07-28T05:16:25.169Z,40.40
2022-07-28T05:18:53.829Z,39.98
2022-07-28T05:21:22.641Z,39.57
2022-07-28T05:23:51.083Z,39.25
2022-07-28T05:26:19.869Z,38.64
2022-07-28T05:28:48.069Z,38.36
2022-07-28T05:31:16.342Z,38.37
2022-07-28T05:33:44.849Z,38.56
2022-07-28T05:36:13.309Z,38.52
2022-07-28T05:38:41.531Z,38.05
2022-07-28T05:41:09.890Z,38.10
2022-07-28T05:43:38.747Z,37.71
2022-07-28T05:46:07.824Z,36.97
2022-07-28T05:48:36.450Z,37.42
2022-07-28T05:51:07.003Z,37.13
2022-07-28T05:53:35.160Z,37.06
2022-07-28T05:56:03.720Z,36.44
2022-07-28T05:58:31.979Z,37.66
2022-07-28T06:01:02.388Z,37.65
2022-07-28T06:03:35.055Z,37.54
2022-07-28T06:06:15.978Z,37.76
2022-07-28T06:08:48.489Z,37.34
2022-07-28T06:11:21.883Z,37.46
2022-07-28T06:13:52.953Z,37.33
2022-07-28T06:16:23.670Z,37.13
2022-07-28T06:18:53.021Z,36.48
2022-07-28T06:21:24.620Z,35.86
2022-07-28T06:23:52.810Z,35.86
2022-07-28T06:26:23.527Z,36.10
2022-07-28T06:28:52.693Z,35.95
2022-07-28T06:31:20.939Z,35.54
2022-07-28T06:33:49.363Z,35.88
2022-07-28T06:36:17.607Z,35.27
2022-07-28T06:38:45.729Z,35.16
2022-07-28T06:41:14.201Z,34.96
2022-07-28T06:43:42.338Z,35.55
2022-07-28T06:46:10.580Z,35.12
2022-07-28T06:48:39.907Z,35.02
2022-07-28T06:51:08.540Z,34.66
2022-07-28T06:53:36.911Z,35.10
2022-07-28T06:56:06.014Z,34.94
2022-07-28T06:58:34.460Z,34.49
2022-07-28T07:01:07.932Z,34.66
2022-07-28T07:03:36.987Z,34.70
2022-07-28T07:06:05.224Z,34.12
2022-07-28T07:08:33.713Z,34.76
2022-07-28T07:11:02.215Z,34.34
2022-07-28T07:13:30.488Z,34.27
2022-07-28T07:15:58.767Z,33.94
2022-07-28T07:18:27.522Z,33.92
2022-07-28T07:20:57.953Z,33.59
2022-07-28T07:23:26.353Z,33.73
2022-07-28T07:25:54.937Z,33.71
2022-07-28T07:28:23.364Z,33.40
2022-07-28T07:30:51.441Z,33.33
2022-07-28T07:33:19.943Z,33.38
2022-07-28T07:35:48.913Z,33.55
2022-07-28T07:38:17.422Z,32.88
2022-07-28T07:40:46.141Z,33.01
2022-07-28T07:43:14.542Z,33.18
2022-07-28T07:45:42.912Z,32.77
2022-07-28T07:48:11.461Z,32.62
2022-07-28T07:50:39.594Z,32.97
2022-07-28T07:53:07.778Z,33.01
2022-07-28T07:55:37.868Z,33.08
2022-07-28T07:58:06.877Z,32.86
2022-07-28T08:00:35.175Z,32.82
2022-07-28T08:03:04.011Z,33.25
2022-07-28T08:05:40.181Z,32.63
2022-07-28T08:08:09.034Z,32.80
2022-07-28T08:10:39.070Z,32.20
2022-07-28T08:13:08.401Z,32.09
2022-07-28T08:15:36.824Z,31.96
2022-07-28T08:18:05.331Z,31.70
2022-07-28T08:20:33.629Z,32.05
2022-07-28T08:23:02.935Z,31.95
2022-07-28T08:25:31.114Z,31.74
2022-07-28T08:27:59.321Z,31.61
2022-07-28T08:30:32.356Z,31.83
2022-07-28T08:33:03.194Z,31.57
2022-07-28T08:35:34.109Z,31.99
2022-07-28T08:38:06.541Z,31.46
2022-07-28T08:40:38.543Z,31.20
2022-07-28T08:43:23.852Z,31.77
2022-07-28T08:45:58.168Z,33.08
2022-07-28T08:48:32.360Z,33.28
2022-07-28T08:51:12.165Z,32.21
2022-07-28T08:53:41.541Z,32.05
2022-07-28T08:56:15.473Z,30.95
2022-07-28T08:58:44.168Z,31.51
2022-07-28T09:01:13.451Z,31.67
2022-07-28T09:03:43.051Z,31.57
2022-07-28T09:06:11.727Z,30.92
2022-07-28T09:08:40.224Z,30.49
2022-07-28T09:11:11.969Z,31.06
2022-07-28T09:13:39.984Z,30.69
2022-07-28T09:16:08.567Z,31.26
2022-07-28T09:18:36.851Z,30.94
2022-07-28T09:21:05.663Z,30.32
2022-07-28T09:23:45.363Z,29.91
2022-07-28T09:26:14.032Z,30.22
2022-07-28T09:29:02.089Z,29.56
2022-07-28T09:31:30.904Z,29.98
2022-07-28T09:34:03.522Z,29.26
2022-07-28T09:36:39.160Z,29.22
2022-07-28T09:39:07.770Z,29.24
2022-07-28T09:41:57.713Z,28.94
2022-07-28T09:44:27.740Z,29.96
2022-07-28T09:46:56.634Z,29.03
2022-07-28T09:49:44.560Z,29.23
2022-07-28T09:52:13.310Z,29.07
2022-07-28T09:55:00.421Z,29.40
2022-07-28T09:57:30.929Z,28.64
2022-07-28T10:00:03.391Z,28.39
2022-07-28T10:02:40.025Z,29.00
2022-07-28T10:05:09.980Z,29.20
2022-07-28T10:07:50.544Z,29.19
2022-07-28T10:10:22.171Z,28.57
2022-07-28T10:12:50.351Z,30.14
2022-07-28T10:15:50.801Z,29.58
2022-07-28T10:18:19.804Z,28.64
2022-07-28T10:20:50.992Z,28.28
2022-07-28T10:23:20.770Z,28.21
2022-07-28T10:25:51.621Z,27.65
2022-07-28T10:28:23.508Z,28.11
2022-07-28T10:30:56.412Z,28.55
2022-07-28T10:33:25.781Z,28.03
2022-07-28T10:35:55.596Z,27.48
2022-07-28T10:38:30.130Z,27.07
2022-07-28T10:41:02.171Z,26.82
2022-07-28T10:43:32.290Z,27.35
2022-07-28T10:46:06.661Z,27.91
2022-07-28T10:48:38.612Z,27.79
2022-07-28T10:51:07.887Z,26.81
2022-07-28T10:54:02.682Z,27.04
2022-07-28T10:56:33.774Z,27.21
2022-07-28T10:59:09.081Z,26.52
2022-07-28T11:01:49.175Z,25.96
2022-07-28T11:04:48.249Z,25.57
2022-07-28T11:07:18.253Z,26.58
2022-07-28T11:09:50.173Z,28.20
2022-07-28T11:12:52.542Z,27.09
2022-07-28T11:15:29.500Z,26.74
2022-07-28T11:18:07.540Z,26.12
2022-07-28T11:21:00.335Z,25.33
2022-07-28T11:23:46.291Z,24.80
2022-07-28T11:26:23.811Z,24.94
2022-07-28T11:28:58.031Z,25.08
2022-07-28T11:31:44.572Z,26.03
2022-07-28T11:34:25.111Z,25.99
2022-07-28T11:37:03.412Z,26.13
2022-07-28T11:39:42.879Z,25.80
2022-07-28T11:42:36.280Z,25.39
2022-07-28T11:45:35.934Z,25.85
2022-07-28T11:48:18.363Z,26.61
2022-07-28T11:51:04.884Z,26.61
2022-07-28T11:53:36.340Z,25.61
2022-07-28T11:56:13.250Z,24.55
2022-07-28T11:58:43.600Z,24.83
2022-07-28T12:01:21.323Z,24.52
2022-07-28T12:03:55.317Z,24.76
2022-07-28T12:06:28.885Z,25.11
2022-07-28T12:09:00.501Z,25.17
2022-07-28T12:11:32.811Z,29.08
2022-07-28T12:14:12.780Z,27.78
2022-07-28T12:16:44.858Z,26.51
2022-07-28T12:19:18.515Z,27.03
2022-07-28T12:21:49.612Z,26.95
2022-07-28T12:24:20.929Z,27.24
2022-07-28T12:26:50.639Z,27.65
2022-07-28T12:29:20.534Z,26.30
2022-07-28T12:31:59.662Z,25.70
2022-07-28T12:34:30.246Z,27.49
2022-07-28T12:37:04.377Z,26.81
2022-07-28T12:39:40.035Z,27.15
2022-07-28T12:42:10.893Z,26.87
2022-07-28T12:44:48.469Z,27.00
2022-07-28T12:47:27.191Z,26.62
2022-07-28T12:50:14.460Z,25.77
2022-07-28T12:52:46.013Z,27.15
2022-07-28T12:55:29.691Z,27.87
2022-07-28T12:57:58.742Z,28.97
2022-07-28T13:00:35.824Z,28.75
2022-07-28T13:03:21.842Z,27.86
2022-07-28T13:06:02.551Z,28.14
2022-07-28T13:08:47.825Z,27.49
2022-07-28T13:11:42.718Z,27.88
2022-07-28T13:14:05.963Z,26.94
2022-07-28T13:16:34.745Z,28.41
2022-07-28T13:19:05.567Z,27.06
2022-07-28T13:22:01.673Z,28.42
2022-07-28T13:24:31.749Z,27.79
2022-07-28T13:27:01.938Z,28.83
2022-07-28T13:29:34.729Z,28.60
2022-07-28T13:32:03.521Z,28.28
2022-07-28T13:34:32.119Z,28.59
2022-07-28T13:37:00.299Z,28.69
2022-07-28T13:39:28.672Z,26.79
2022-07-28T13:41:59.115Z,27.06
2022-07-28T13:44:28.309Z,26.67
2022-07-28T13:46:59.349Z,26.52
2022-07-28T13:49:32.711Z,27.15
2022-07-28T13:52:02.002Z,27.36
2022-07-28T13:54:30.226Z,29.05
2022-07-28T13:56:58.696Z,27.47
2022-07-28T13:59:27.185Z,28.15
2022-07-28T14:01:58.607Z,29.36
2022-07-28T14:04:26.801Z,29.89
2022-07-28T14:06:55.232Z,30.04
2022-07-28T14:09:23.428Z,29.28
2022-07-28T14:11:54.026Z,29.74
2022-07-28T14:14:25.581Z,30.30
2022-07-28T14:16:55.116Z,29.16
2022-07-28T14:19:38.580Z,28.14
2022-07-28T14:22:13.126Z,29.30
2022-07-28T14:24:42.846Z,29.28
2022-07-28T14:27:11.728Z,29.62
2022-07-28T14:29:40.708Z,30.23
2022-07-28T14:32:09.089Z,31.70
2022-07-28T14:34:37.348Z,30.81
2022-07-28T14:37:09.439Z,30.46
2022-07-28T14:39:38.538Z,30.22
2022-07-28T14:42:07.709Z,30.19
2022-07-28T14:44:36.373Z,30.42
2022-07-28T14:47:06.767Z,32.49
2022-07-28T14:49:36.017Z,31.00
2022-07-28T14:52:05.271Z,30.18
2022-07-28T14:54:34.309Z,30.83
2022-07-28T14:57:03.411Z,31.87
2022-07-28T14:59:31.631Z,31.64
2022-07-28T15:02:00.319Z,31.29
2022-07-28T15:04:28.973Z,31.78
2022-07-28T15:06:57.131Z,31.14
2022-07-28T15:09:25.662Z,30.21
2022-07-28T15:11:53.925Z,31.04
2022-07-28T15:14:22.234Z,32.00
2022-07-28T15:16:51.665Z,31.51
2022-07-28T15:19:20.943Z,32.03
2022-07-28T15:21:49.317Z,31.29
2022-07-28T15:24:18.087Z,32.37
2022-07-28T15:26:46.943Z,31.40
2022-07-28T15:29:15.233Z,31.25
2022-07-28T15:31:45.319Z,30.47
2022-07-28T15:34:15.659Z,31.07
2022-07-28T15:36:44.715Z,31.34
2022-07-28T15:39:16.165Z,30.51
2022-07-28T15:41:46.583Z,30.85
2022-07-28T15:44:17.124Z,31.02
2022-07-28T15:46:54.280Z,30.93
2022-07-28T15:49:22.746Z,30.95
2022-07-28T15:51:51.064Z,31.51
2022-07-28T15:54:19.364Z,31.02
2022-07-28T15:56:47.833Z,30.76
2022-07-28T15:59:16.069Z,30.91
2022-07-28T16:01:45.737Z,30.37
2022-07-28T16:04:14.940Z,30.59
2022-07-28T16:07:02.299Z,30.45
2022-07-28T16:09:46.087Z,30.75
2022-07-28T16:12:15.846Z,31.49
2022-07-28T16:14:44.546Z,30.44
2022-07-28T16:17:13.384Z,30.41
2022-07-28T16:19:50.261Z,31.00
2022-07-28T16:22:20.314Z,31.34
2022-07-28T16:24:49.800Z,31.67
2022-07-28T16:27:18.021Z,31.67
2022-07-28T16:29:46.605Z,31.10
2022-07-28T16:32:14.755Z,31.46
2022-07-28T16:34:42.824Z,32.01
2022-07-28T16:37:14.733Z,31.95
2022-07-28T16:39:45.866Z,32.97
2022-07-28T16:42:14.459Z,32.55
2022-07-28T16:44:43.045Z,32.38
2022-07-28T16:47:12.552Z,31.10
2022-07-28T16:49:45.585Z,32.33
2022-07-28T16:52:15.205Z,32.59
2022-07-28T16:54:43.702Z,31.87
2022-07-28T16:57:12.567Z,31.76
2022-07-28T16:59:47.880Z,31.75
2022-07-28T17:02:19.426Z,31.59
2022-07-28T17:04:47.915Z,32.25
2022-07-28T17:07:16.133Z,32.01
2022-07-28T17:09:45.124Z,31.21
2022-07-28T17:12:13.935Z,32.05
2022-07-28T17:14:42.084Z,32.13
2022-07-28T17:17:10.654Z,32.59
2022-07-28T17:19:43.415Z,32.75
2022-07-28T17:22:16.406Z,32.26
2022-07-28T17:24:44.505Z,32.74
2022-07-28T17:30:01.124Z,31.16
2022-07-28T17:32:29.200Z,31.62
2022-07-28T17:34:57.375Z,31.32
2022-07-28T17:37:27.914Z,31.15
2022-07-28T17:39:56.225Z,30.97
2022-07-28T17:42:24.350Z,30.90
2022-07-28T17:44:56.505Z,30.58
2022-07-28T17:47:36.355Z,30.19
2022-07-28T17:50:07.579Z,30.13
2022-07-28T17:52:35.919Z,29.37
2022-07-28T17:55:23.461Z,29.81
2022-07-28T17:57:53.627Z,30.14
2022-07-28T18:00:22.863Z,30.55
2022-07-28T18:02:51.006Z,30.94
2022-07-28T18:05:19.835Z,31.16
2022-07-28T18:07:50.280Z,31.59
2022-07-28T18:10:24.979Z,31.41
2022-07-28T18:12:55.505Z,31.60
2022-07-28T18:15:23.867Z,31.46
2022-07-28T18:17:54.742Z,31.13
2022-07-28T18:20:24.851Z,31.57
2022-07-28T18:22:53.077Z,32.08
2022-07-28T18:25:21.433Z,31.98
2022-07-28T18:27:49.813Z,32.39
2022-07-28T18:30:19.194Z,32.74
2022-07-28T18:32:47.305Z,33.25
2022-07-28T18:35:17.203Z,32.75
2022-07-28T18:37:46.333Z,33.23
2022-07-28T18:40:16.918Z,33.64
2022-07-28T18:42:46.570Z,33.71
2022-07-28T18:45:15.548Z,33.60
2022-07-28T18:47:47.350Z,34.00
2022-07-28T18:50:31.571Z,34.95
2022-07-28T18:53:00.164Z,34.69
2022-07-28T18:55:28.927Z,35.13
2022-07-28T18:57:57.146Z,35.29
2022-07-28T19:27:37.223Z,37.21
2022-07-28T19:30:09.494Z,37.65
2022-07-28T19:32:41.972Z,37.24
2022-07-28T19:35:10.955Z,37.80
2022-07-28T19:37:40.000Z,37.91
2022-07-28T19:40:08.654Z,37.99
2022-07-28T19:42:36.793Z,37.57
2022-07-28T19:45:06.422Z,38.21
2022-07-28T19:47:36.879Z,37.60
2022-07-28T19:50:06.279Z,37.61
2022-07-28T19:52:34.955Z,38.20
2022-07-28T19:55:07.449Z,38.24
2022-07-28T19:57:37.426Z,39.05
2022-07-28T20:00:07.765Z,40.24
2022-07-28T20:02:46.299Z,40.53
2022-07-28T20:05:15.959Z,40.05
2022-07-28T20:07:46.265Z,39.63
2022-07-28T20:10:14.625Z,39.26
2022-07-28T20:12:42.816Z,39.01
2022-07-28T20:15:11.285Z,38.68
2022-07-28T20:17:40.123Z,38.72
2022-07-28T20:20:11.658Z,38.40
2022-07-28T20:22:41.645Z,38.51
2022-07-28T20:25:11.579Z,38.23
2022-07-28T20:27:42.104Z,38.30
2022-07-28T20:30:12.517Z,38.21
2022-07-28T20:32:42.128Z,37.84
2022-07-28T20:35:11.839Z,38.14
2022-07-28T20:37:40.370Z,38.39
2022-07-28T20:40:10.003Z,38.34
2022-07-28T20:42:38.026Z,37.89
2022-07-28T20:45:07.346Z,38.47
2022-07-28T20:47:35.534Z,37.86
2022-07-28T20:50:05.458Z,37.63
2022-07-28T20:52:36.525Z,37.32
2022-07-28T20:55:04.804Z,37.32
2022-07-28T20:57:32.984Z,37.10
2022-07-28T21:00:03.608Z,37.57
2022-07-28T21:02:31.784Z,37.42
2022-07-28T21:04:59.781Z,36.99
2022-07-28T21:08:05.156Z,36.95
2022-07-28T21:10:17.326Z,37.27
2022-07-28T21:12:45.666Z,37.27
2022-07-28T21:15:13.929Z,37.30
2022-07-28T21:17:41.986Z,37.27
2022-07-28T21:20:10.828Z,37.64
2022-07-28T21:22:38.957Z,37.54
2022-07-28T21:25:07.747Z,37.11
2022-07-28T21:27:54.706Z,37.89
2022-07-28T21:30:27.592Z,37.66
2022-07-28T21:32:56.659Z,37.85
2022-07-28T21:35:25.364Z,37.52
2022-07-28T21:37:53.489Z,37.86
2022-07-28T21:40:21.926Z,37.67
2022-07-28T21:42:50.237Z,37.65
2022-07-28T21:45:18.612Z,38.07
2022-07-28T21:47:47.719Z,37.87
2022-07-28T21:50:15.776Z,38.13
2022-07-28T21:52:43.920Z,38.21
2022-07-28T21:55:12.351Z,37.29
2022-07-28T21:57:40.750Z,37.63
2022-07-28T22:00:12.830Z,38.11
2022-07-28T22:02:42.438Z,38.22
2022-07-28T22:05:10.775Z,38.18
2022-07-28T22:07:38.919Z,37.86
2022-07-28T22:10:07.754Z,38.65
2022-07-28T22:12:36.155Z,38.22
2022-07-28T22:15:04.497Z,37.84
2022-07-28T22:17:33.153Z,38.05
2022-07-28T22:20:01.345Z,39.59
2022-07-28T22:22:29.501Z,40.67
2022-07-28T22:24:57.791Z,43.18
2022-07-28T22:27:26.144Z,43.99
2022-07-28T22:29:54.615Z,46.33
2022-07-28T22:32:28.657Z,47.61
2022-07-28T22:34:58.610Z,48.21
2022-07-28T22:37:27.099Z,48.02
2022-07-28T22:39:55.243Z,49.22
2022-07-28T22:42:23.425Z,48.35
2022-07-28T22:44:51.701Z,50.15
2022-07-28T22:47:19.773Z,49.34
2022-07-28T22:49:48.133Z,49.80
2022-07-28T22:52:16.583Z,49.55
2022-07-28T22:57:30.361Z,49.85
2022-07-28T22:59:58.704Z,49.96
2022-07-28T23:02:26.855Z,50.77
2022-07-28T23:04:55.352Z,50.31
2022-07-28T23:07:51.443Z,50.60
2022-07-28T23:10:12.212Z,50.58
2022-07-28T23:12:40.395Z,50.22
2022-07-28T23:15:08.991Z,52.04
2022-07-28T23:17:37.560Z,51.90
2022-07-28T23:20:07.507Z,51.25
2022-07-28T23:22:35.697Z,51.04
2022-07-28T23:25:04.388Z,50.58
2022-07-28T23:27:32.429Z,52.16
2022-07-28T23:30:00.529Z,51.45
2022-07-28T23:32:29.168Z,51.53
2022-07-28T23:34:57.337Z,50.67
2022-07-28T23:37:25.705Z,50.38
2022-07-28T23:39:54.874Z,50.83
2022-07-28T23:42:23.230Z,51.53
2022-07-28T23:44:51.471Z,51.57
2022-07-28T23:47:19.912Z,51.42
2022-07-28T23:49:48.052Z,51.72
2022-07-28T23:52:16.139Z,52.01
2022-07-28T23:54:44.928Z,52.65
2022-07-28T23:57:13.030Z,51.60
2022-07-28T23:59:41.185Z,52.69
